sensor_id;sensor_type;location;lat;lon;timestamp;temperature;humidity
38118;DHT22;23928;47.562;7.508;2022-11-15T00:01:16;8.50;99.90
38118;DHT22;23928;47.562;7.508;2022-11-15T00:03:42;8.50;99.90
38118;DHT22;23928;47.562;7.508;2022-11-15T00:06:08;8.70;99.90
38118;DHT22;23928;47.562;7.508;2022-11-15T00:08:34;8.60;99.90
38118;DHT22;23928;47.562;7.508;2022-11-15T00:11:01;8.50;99.90
38118;DHT22;23928;47.562;7.508;2022-11-15T00:13:28;8.60;99.90
38118;DHT22;23928;47.562;7.508;2022-11-15T00:15:57;8.60;99.90
38118;DHT22;23928;47.562;7.508;2022-11-15T00:18:23;8.60;99.90
38118;DHT22;23928;47.562;7.508;2022-11-15T00:20:49;8.60;99.90
38118;DHT22;23928;47.562;7.508;2022-11-15T00:23:14;8.60;99.90
38118;DHT22;23928;47.562;7.508;2022-11-15T00:25:40;8.60;99.90
38118;DHT22;23928;47.562;7.508;2022-11-15T00:28:06;8.60;99.90
38118;DHT22;23928;47.562;7.508;2022-11-15T00:30:31;8.50;99.90
38118;DHT22;23928;47.562;7.508;2022-11-15T00:33:04;8.60;99.90
38118;DHT22;23928;47.562;7.508;2022-11-15T00:35:34;8.70;99.90
38118;DHT22;23928;47.562;7.508;2022-11-15T00:38:00;8.70;99.90
38118;DHT22;23928;47.562;7.508;2022-11-15T00:40:26;8.80;99.90
38118;DHT22;23928;47.562;7.508;2022-11-15T00:42:52;8.90;99.90
38118;DHT22;23928;47.562;7.508;2022-11-15T00:45:17;8.80;99.90
38118;DHT22;23928;47.562;7.508;2022-11-15T00:47:46;8.80;99.90
38118;DHT22;23928;47.562;7.508;2022-11-15T00:50:12;8.80;99.90
38118;DHT22;23928;47.562;7.508;2022-11-15T00:52:38;8.90;99.90
38118;DHT22;23928;47.562;7.508;2022-11-15T00:55:04;8.80;99.90
38118;DHT22;23928;47.562;7.508;2022-11-15T00:57:30;8.90;99.90
38118;DHT22;23928;47.562;7.508;2022-11-15T00:59:55;8.90;99.90
38118;DHT22;23928;47.562;7.508;2022-11-15T01:02:21;8.90;99.90
38118;DHT22;23928;47.562;7.508;2022-11-15T01:04:47;8.90;99.90
38118;DHT22;23928;47.562;7.508;2022-11-15T01:07:12;9.00;99.90
38118;DHT22;23928;47.562;7.508;2022-11-15T01:09:38;8.90;99.90
38118;DHT22;23928;47.562;7.508;2022-11-15T01:12:04;8.90;99.90
38118;DHT22;23928;47.562;7.508;2022-11-15T01:14:29;9.00;99.90
38118;DHT22;23928;47.562;7.508;2022-11-15T01:16:55;9.00;99.90
38118;DHT22;23928;47.562;7.508;2022-11-15T01:19:22;9.00;99.90
38118;DHT22;23928;47.562;7.508;2022-11-15T01:21:51;9.10;99.90
38118;DHT22;23928;47.562;7.508;2022-11-15T01:24:17;9.10;99.90
38118;DHT22;23928;47.562;7.508;2022-11-15T01:26:43;9.10;99.90
38118;DHT22;23928;47.562;7.508;2022-11-15T01:29:08;9.20;99.90
38118;DHT22;23928;47.562;7.508;2022-11-15T01:31:34;9.20;99.90
38118;DHT22;23928;47.562;7.508;2022-11-15T01:33:59;9.20;99.90
38118;DHT22;23928;47.562;7.508;2022-11-15T01:36:25;9.20;99.90
38118;DHT22;23928;47.562;7.508;2022-11-15T01:38:55;9.30;99.90
38118;DHT22;23928;47.562;7.508;2022-11-15T01:41:27;9.30;99.90
38118;DHT22;23928;47.562;7.508;2022-11-15T01:43:55;9.30;99.90
38118;DHT22;23928;47.562;7.508;2022-11-15T01:48:53;9.20;99.90
38118;DHT22;23928;47.562;7.508;2022-11-15T01:51:22;9.30;99.90
38118;DHT22;23928;47.562;7.508;2022-11-15T01:53:51;9.20;99.90
38118;DHT22;23928;47.562;7.508;2022-11-15T01:56:24;9.30;99.90
38118;DHT22;23928;47.562;7.508;2022-11-15T01:58:51;9.30;99.90
38118;DHT22;23928;47.562;7.508;2022-11-15T02:01:17;9.20;99.90
38118;DHT22;23928;47.562;7.508;2022-11-15T02:06:16;9.10;99.90
38118;DHT22;23928;47.562;7.508;2022-11-15T02:08:42;9.10;99.90
38118;DHT22;23928;47.562;7.508;2022-11-15T02:11:09;9.20;99.90
38118;DHT22;23928;47.562;7.508;2022-11-15T02:13:35;9.20;99.90
38118;DHT22;23928;47.562;7.508;2022-11-15T02:18:41;9.10;99.90
38118;DHT22;23928;47.562;7.508;2022-11-15T02:25:01;9.30;99.90
38118;DHT22;23928;47.562;7.508;2022-11-15T02:27:22;9.20;99.90
38118;DHT22;23928;47.562;7.508;2022-11-15T02:30:20;9.30;99.90
38118;DHT22;23928;47.562;7.508;2022-11-15T02:32:58;9.30;99.90
38118;DHT22;23928;47.562;7.508;2022-11-15T02:35:47;9.20;99.90
38118;DHT22;23928;47.562;7.508;2022-11-15T02:41:03;9.20;99.90
38118;DHT22;23928;47.562;7.508;2022-11-15T02:43:41;9.20;99.90
38118;DHT22;23928;47.562;7.508;2022-11-15T02:46:49;9.20;99.90
38118;DHT22;23928;47.562;7.508;2022-11-15T02:49:35;9.20;99.90
38118;DHT22;23928;47.562;7.508;2022-11-15T02:52:03;9.20;99.90
38118;DHT22;23928;47.562;7.508;2022-11-15T02:54:31;9.10;99.90
38118;DHT22;23928;47.562;7.508;2022-11-15T02:57:18;9.20;99.90
38118;DHT22;23928;47.562;7.508;2022-11-15T03:00:13;9.10;99.90
38118;DHT22;23928;47.562;7.508;2022-11-15T03:03:06;9.10;99.90
38118;DHT22;23928;47.562;7.508;2022-11-15T03:08:32;9.10;99.90
38118;DHT22;23928;47.562;7.508;2022-11-15T03:11:14;9.20;99.90
38118;DHT22;23928;47.562;7.508;2022-11-15T03:14:00;9.10;99.90
38118;DHT22;23928;47.562;7.508;2022-11-15T03:16:37;9.20;99.90
38118;DHT22;23928;47.562;7.508;2022-11-15T03:21:44;9.20;99.90
38118;DHT22;23928;47.562;7.508;2022-11-15T03:24:12;9.10;99.90
38118;DHT22;23928;47.562;7.508;2022-11-15T03:26:41;9.10;99.90
38118;DHT22;23928;47.562;7.508;2022-11-15T03:29:16;9.10;99.90
38118;DHT22;23928;47.562;7.508;2022-11-15T03:31:46;9.10;99.90
38118;DHT22;23928;47.562;7.508;2022-11-15T03:34:26;9.10;99.90
38118;DHT22;23928;47.562;7.508;2022-11-15T03:36:53;9.10;99.90
38118;DHT22;23928;47.562;7.508;2022-11-15T03:39:19;9.10;99.90
38118;DHT22;23928;47.562;7.508;2022-11-15T03:42:42;9.10;99.90
38118;DHT22;23928;47.562;7.508;2022-11-15T03:47:34;9.10;99.90
38118;DHT22;23928;47.562;7.508;2022-11-15T03:50:07;9.10;99.90
38118;DHT22;23928;47.562;7.508;2022-11-15T03:52:34;9.10;99.90
38118;DHT22;23928;47.562;7.508;2022-11-15T03:55:01;9.10;99.90
38118;DHT22;23928;47.562;7.508;2022-11-15T03:57:28;9.10;99.90
38118;DHT22;23928;47.562;7.508;2022-11-15T03:59:53;9.10;99.90
38118;DHT22;23928;47.562;7.508;2022-11-15T04:02:19;9.00;99.90
38118;DHT22;23928;47.562;7.508;2022-11-15T04:04:45;9.00;99.90
38118;DHT22;23928;47.562;7.508;2022-11-15T04:07:11;9.00;99.90
38118;DHT22;23928;47.562;7.508;2022-11-15T04:09:36;9.00;99.90
38118;DHT22;23928;47.562;7.508;2022-11-15T04:12:21;9.00;99.90
38118;DHT22;23928;47.562;7.508;2022-11-15T04:15:05;9.00;99.90
38118;DHT22;23928;47.562;7.508;2022-11-15T04:17:44;9.00;99.90
38118;DHT22;23928;47.562;7.508;2022-11-15T04:23:02;9.00;99.90
38118;DHT22;23928;47.562;7.508;2022-11-15T04:25:49;9.00;99.90
38118;DHT22;23928;47.562;7.508;2022-11-15T04:28:16;9.10;99.90
38118;DHT22;23928;47.562;7.508;2022-11-15T04:30:42;9.00;99.90
38118;DHT22;23928;47.562;7.508;2022-11-15T04:33:07;8.90;99.90
38118;DHT22;23928;47.562;7.508;2022-11-15T04:35:33;9.00;99.90
38118;DHT22;23928;47.562;7.508;2022-11-15T04:37:59;9.00;99.90
38118;DHT22;23928;47.562;7.508;2022-11-15T04:40:25;9.00;99.90
38118;DHT22;23928;47.562;7.508;2022-11-15T04:42:50;9.10;99.90
38118;DHT22;23928;47.562;7.508;2022-11-15T04:45:16;9.00;99.90
38118;DHT22;23928;47.562;7.508;2022-11-15T04:47:45;8.90;99.90
38118;DHT22;23928;47.562;7.508;2022-11-15T04:50:12;9.00;99.90
38118;DHT22;23928;47.562;7.508;2022-11-15T04:52:43;9.00;99.90
38118;DHT22;23928;47.562;7.508;2022-11-15T04:55:10;8.90;99.90
38118;DHT22;23928;47.562;7.508;2022-11-15T04:57:36;9.00;99.90
38118;DHT22;23928;47.562;7.508;2022-11-15T05:00:07;9.00;99.90
38118;DHT22;23928;47.562;7.508;2022-11-15T05:02:32;9.00;99.90
38118;DHT22;23928;47.562;7.508;2022-11-15T05:05:17;9.10;99.90
38118;DHT22;23928;47.562;7.508;2022-11-15T05:07:42;9.00;99.90
38118;DHT22;23928;47.562;7.508;2022-11-15T05:10:08;9.00;99.90
38118;DHT22;23928;47.562;7.508;2022-11-15T05:12:34;8.90;99.90
38118;DHT22;23928;47.562;7.508;2022-11-15T05:15:00;8.90;99.90
38118;DHT22;23928;47.562;7.508;2022-11-15T05:17:26;8.90;99.90
38118;DHT22;23928;47.562;7.508;2022-11-15T05:19:51;8.80;99.90
38118;DHT22;23928;47.562;7.508;2022-11-15T05:22:17;8.80;99.90
38118;DHT22;23928;47.562;7.508;2022-11-15T05:24:43;8.90;99.90
38118;DHT22;23928;47.562;7.508;2022-11-15T05:27:09;9.00;99.90
38118;DHT22;23928;47.562;7.508;2022-11-15T05:29:34;8.90;99.90
38118;DHT22;23928;47.562;7.508;2022-11-15T05:32:00;8.80;99.90
38118;DHT22;23928;47.562;7.508;2022-11-15T05:34:26;8.70;99.90
38118;DHT22;23928;47.562;7.508;2022-11-15T05:36:52;8.80;99.90
38118;DHT22;23928;47.562;7.508;2022-11-15T05:39:18;8.80;99.90
38118;DHT22;23928;47.562;7.508;2022-11-15T05:41:52;8.80;99.90
38118;DHT22;23928;47.562;7.508;2022-11-15T05:44:20;8.80;99.90
38118;DHT22;23928;47.562;7.508;2022-11-15T05:46:47;8.70;99.90
38118;DHT22;23928;47.562;7.508;2022-11-15T05:49:16;8.70;99.90
38118;DHT22;23928;47.562;7.508;2022-11-15T05:51:45;8.60;99.90
38118;DHT22;23928;47.562;7.508;2022-11-15T05:54:12;8.70;99.90
38118;DHT22;23928;47.562;7.508;2022-11-15T05:56:39;8.60;99.90
38118;DHT22;23928;47.562;7.508;2022-11-15T05:59:05;8.70;99.90
38118;DHT22;23928;47.562;7.508;2022-11-15T06:01:32;8.70;99.90
38118;DHT22;23928;47.562;7.508;2022-11-15T06:03:58;8.80;99.90
38118;DHT22;23928;47.562;7.508;2022-11-15T06:06:23;8.80;99.90
38118;DHT22;23928;47.562;7.508;2022-11-15T06:08:49;8.80;99.90
38118;DHT22;23928;47.562;7.508;2022-11-15T06:11:14;8.80;99.90
38118;DHT22;23928;47.562;7.508;2022-11-15T06:13:40;8.80;99.90
38118;DHT22;23928;47.562;7.508;2022-11-15T06:16:06;8.90;99.90
38118;DHT22;23928;47.562;7.508;2022-11-15T06:18:33;8.80;99.90
38118;DHT22;23928;47.562;7.508;2022-11-15T06:20:59;8.70;99.90
38118;DHT22;23928;47.562;7.508;2022-11-15T06:23:25;8.70;99.90
38118;DHT22;23928;47.562;7.508;2022-11-15T06:25:51;8.70;99.90
38118;DHT22;23928;47.562;7.508;2022-11-15T06:28:16;8.70;99.90
38118;DHT22;23928;47.562;7.508;2022-11-15T06:30:42;8.80;99.90
38118;DHT22;23928;47.562;7.508;2022-11-15T06:33:08;8.80;99.90
38118;DHT22;23928;47.562;7.508;2022-11-15T06:35:35;8.80;99.90
38118;DHT22;23928;47.562;7.508;2022-11-15T06:38:06;8.80;99.90
38118;DHT22;23928;47.562;7.508;2022-11-15T06:40:34;8.80;99.90
38118;DHT22;23928;47.562;7.508;2022-11-15T06:43:00;8.70;99.90
38118;DHT22;23928;47.562;7.508;2022-11-15T06:45:26;8.80;99.90
38118;DHT22;23928;47.562;7.508;2022-11-15T06:47:52;8.70;99.90
38118;DHT22;23928;47.562;7.508;2022-11-15T06:50:18;8.80;99.90
38118;DHT22;23928;47.562;7.508;2022-11-15T06:52:43;8.80;99.90
38118;DHT22;23928;47.562;7.508;2022-11-15T06:55:09;8.80;99.90
38118;DHT22;23928;47.562;7.508;2022-11-15T06:57:36;8.90;99.90
38118;DHT22;23928;47.562;7.508;2022-11-15T07:00:04;8.90;99.90
38118;DHT22;23928;47.562;7.508;2022-11-15T07:02:30;8.90;99.90
38118;DHT22;23928;47.562;7.508;2022-11-15T07:04:55;8.90;99.90
38118;DHT22;23928;47.562;7.508;2022-11-15T07:07:21;8.90;99.90
38118;DHT22;23928;47.562;7.508;2022-11-15T07:09:46;8.80;99.90
38118;DHT22;23928;47.562;7.508;2022-11-15T07:12:12;8.90;99.90
38118;DHT22;23928;47.562;7.508;2022-11-15T07:14:38;9.00;99.90
38118;DHT22;23928;47.562;7.508;2022-11-15T07:17:04;8.90;99.90
38118;DHT22;23928;47.562;7.508;2022-11-15T07:19:30;9.00;99.90
38118;DHT22;23928;47.562;7.508;2022-11-15T07:21:56;9.00;99.90
38118;DHT22;23928;47.562;7.508;2022-11-15T07:24:22;9.10;99.90
38118;DHT22;23928;47.562;7.508;2022-11-15T07:26:47;9.10;99.90
38118;DHT22;23928;47.562;7.508;2022-11-15T07:29:13;9.00;99.90
38118;DHT22;23928;47.562;7.508;2022-11-15T07:31:38;9.00;99.90
38118;DHT22;23928;47.562;7.508;2022-11-15T07:34:04;9.10;99.90
38118;DHT22;23928;47.562;7.508;2022-11-15T07:36:30;9.10;99.90
38118;DHT22;23928;47.562;7.508;2022-11-15T07:38:55;9.10;99.90
38118;DHT22;23928;47.562;7.508;2022-11-15T07:41:21;9.10;99.90
38118;DHT22;23928;47.562;7.508;2022-11-15T07:43:47;9.20;99.90
38118;DHT22;23928;47.562;7.508;2022-11-15T07:46:12;9.20;99.90
38118;DHT22;23928;47.562;7.508;2022-11-15T07:48:38;9.20;99.90
38118;DHT22;23928;47.562;7.508;2022-11-15T07:51:06;9.20;99.90
38118;DHT22;23928;47.562;7.508;2022-11-15T07:53:31;9.10;99.90
38118;DHT22;23928;47.562;7.508;2022-11-15T07:55:57;9.20;99.90
38118;DHT22;23928;47.562;7.508;2022-11-15T07:58:22;9.20;99.90
38118;DHT22;23928;47.562;7.508;2022-11-15T08:00:48;9.30;99.90
38118;DHT22;23928;47.562;7.508;2022-11-15T08:03:15;9.30;99.90
38118;DHT22;23928;47.562;7.508;2022-11-15T08:05:42;9.30;99.90
38118;DHT22;23928;47.562;7.508;2022-11-15T08:08:09;9.20;99.90
38118;DHT22;23928;47.562;7.508;2022-11-15T08:10:36;9.40;99.90
38118;DHT22;23928;47.562;7.508;2022-11-15T08:13:07;9.40;99.90
38118;DHT22;23928;47.562;7.508;2022-11-15T08:15:34;9.40;99.90
38118;DHT22;23928;47.562;7.508;2022-11-15T08:18:02;9.40;99.90
38118;DHT22;23928;47.562;7.508;2022-11-15T08:20:29;9.50;99.90
38118;DHT22;23928;47.562;7.508;2022-11-15T08:22:56;9.40;99.90
38118;DHT22;23928;47.562;7.508;2022-11-15T08:25:22;9.50;99.90
38118;DHT22;23928;47.562;7.508;2022-11-15T08:27:51;9.40;99.90
38118;DHT22;23928;47.562;7.508;2022-11-15T08:30:17;9.40;99.90
38118;DHT22;23928;47.562;7.508;2022-11-15T08:32:42;9.40;99.90
38118;DHT22;23928;47.562;7.508;2022-11-15T08:35:08;9.40;99.90
38118;DHT22;23928;47.562;7.508;2022-11-15T08:37:34;9.40;99.90
38118;DHT22;23928;47.562;7.508;2022-11-15T08:40:00;9.40;99.90
38118;DHT22;23928;47.562;7.508;2022-11-15T08:42:25;9.30;99.90
38118;DHT22;23928;47.562;7.508;2022-11-15T08:44:51;9.30;99.90
38118;DHT22;23928;47.562;7.508;2022-11-15T08:47:16;9.30;99.90
38118;DHT22;23928;47.562;7.508;2022-11-15T08:49:42;9.30;99.90
38118;DHT22;23928;47.562;7.508;2022-11-15T08:52:07;9.30;99.90
38118;DHT22;23928;47.562;7.508;2022-11-15T08:54:33;9.30;99.90
38118;DHT22;23928;47.562;7.508;2022-11-15T08:56:59;9.30;99.90
38118;DHT22;23928;47.562;7.508;2022-11-15T08:59:24;9.40;99.90
38118;DHT22;23928;47.562;7.508;2022-11-15T09:01:50;9.40;99.90
38118;DHT22;23928;47.562;7.508;2022-11-15T09:04:16;9.40;99.90
38118;DHT22;23928;47.562;7.508;2022-11-15T09:06:42;9.40;99.90
38118;DHT22;23928;47.562;7.508;2022-11-15T09:09:07;9.40;99.90
38118;DHT22;23928;47.562;7.508;2022-11-15T09:11:33;9.50;99.90
38118;DHT22;23928;47.562;7.508;2022-11-15T09:13:58;9.50;99.90
38118;DHT22;23928;47.562;7.508;2022-11-15T09:16:24;9.50;99.90
38118;DHT22;23928;47.562;7.508;2022-11-15T09:18:50;9.50;99.90
38118;DHT22;23928;47.562;7.508;2022-11-15T09:21:15;9.70;99.90
38118;DHT22;23928;47.562;7.508;2022-11-15T09:23:41;9.50;99.90
38118;DHT22;23928;47.562;7.508;2022-11-15T09:26:06;9.50;99.90
38118;DHT22;23928;47.562;7.508;2022-11-15T09:28:33;9.60;99.90
38118;DHT22;23928;47.562;7.508;2022-11-15T09:31:01;9.60;99.90
38118;DHT22;23928;47.562;7.508;2022-11-15T09:33:27;9.60;99.90
38118;DHT22;23928;47.562;7.508;2022-11-15T09:35:54;9.60;99.90
38118;DHT22;23928;47.562;7.508;2022-11-15T09:38:20;9.50;99.90
38118;DHT22;23928;47.562;7.508;2022-11-15T09:40:50;9.50;99.90
38118;DHT22;23928;47.562;7.508;2022-11-15T09:51:19;9.80;99.90
38118;DHT22;23928;47.562;7.508;2022-11-15T09:56:20;9.90;99.90
38118;DHT22;23928;47.562;7.508;2022-11-15T10:04:22;10.00;99.90
38118;DHT22;23928;47.562;7.508;2022-11-15T10:12:29;10.00;99.90
38118;DHT22;23928;47.562;7.508;2022-11-15T10:15:15;10.10;99.90
38118;DHT22;23928;47.562;7.508;2022-11-15T10:20:48;10.10;99.90
38118;DHT22;23928;47.562;7.508;2022-11-15T10:23:19;10.20;99.90
38118;DHT22;23928;47.562;7.508;2022-11-15T10:25:45;10.10;99.90
38118;DHT22;23928;47.562;7.508;2022-11-15T10:30:55;10.10;99.90
38118;DHT22;23928;47.562;7.508;2022-11-15T10:33:46;10.20;99.90
38118;DHT22;23928;47.562;7.508;2022-11-15T10:41:18;10.30;99.90
38118;DHT22;23928;47.562;7.508;2022-11-15T10:43:45;10.30;99.90
38118;DHT22;23928;47.562;7.508;2022-11-15T10:46:22;10.30;99.90
38118;DHT22;23928;47.562;7.508;2022-11-15T10:48:48;10.40;99.90
38118;DHT22;23928;47.562;7.508;2022-11-15T10:51:27;10.40;99.90
38118;DHT22;23928;47.562;7.508;2022-11-15T10:53:56;10.50;99.90
38118;DHT22;23928;47.562;7.508;2022-11-15T10:56:24;10.50;99.90
38118;DHT22;23928;47.562;7.508;2022-11-15T11:01:22;10.60;99.90
38118;DHT22;23928;47.562;7.508;2022-11-15T11:04:17;10.60;99.90
38118;DHT22;23928;47.562;7.508;2022-11-15T11:06:48;10.60;99.90
38118;DHT22;23928;47.562;7.508;2022-11-15T11:09:35;10.90;99.90
38118;DHT22;23928;47.562;7.508;2022-11-15T11:12:02;10.70;99.90
38118;DHT22;23928;47.562;7.508;2022-11-15T11:14:35;10.70;99.90
38118;DHT22;23928;47.562;7.508;2022-11-15T11:17:22;10.90;99.90
38118;DHT22;23928;47.562;7.508;2022-11-15T11:25:34;11.00;99.90
38118;DHT22;23928;47.562;7.508;2022-11-15T11:39:27;11.10;99.90
38118;DHT22;23928;47.562;7.508;2022-11-15T11:47:22;11.30;99.90
38118;DHT22;23928;47.562;7.508;2022-11-15T11:49:56;11.40;99.90
38118;DHT22;23928;47.562;7.508;2022-11-15T11:55:20;11.40;99.90
38118;DHT22;23928;47.562;7.508;2022-11-15T12:00:23;11.40;99.90
38118;DHT22;23928;47.562;7.508;2022-11-15T12:05:57;11.30;99.90
38118;DHT22;23928;47.562;7.508;2022-11-15T12:11:25;11.10;99.90
38118;DHT22;23928;47.562;7.508;2022-11-15T12:14:00;11.10;99.90
38118;DHT22;23928;47.562;7.508;2022-11-15T12:16:28;11.10;99.90
38118;DHT22;23928;47.562;7.508;2022-11-15T12:18:56;11.20;99.90
38118;DHT22;23928;47.562;7.508;2022-11-15T12:24:17;11.30;99.90
38118;DHT22;23928;47.562;7.508;2022-11-15T12:26:55;11.30;99.90
38118;DHT22;23928;47.562;7.508;2022-11-15T12:29:25;11.40;99.90
38118;DHT22;23928;47.562;7.508;2022-11-15T12:31:54;11.30;99.90
38118;DHT22;23928;47.562;7.508;2022-11-15T12:36:49;11.40;99.90
38118;DHT22;23928;47.562;7.508;2022-11-15T12:39:16;11.50;99.90
38118;DHT22;23928;47.562;7.508;2022-11-15T12:47:21;11.60;99.90
38118;DHT22;23928;47.562;7.508;2022-11-15T12:49:48;11.50;99.90
38118;DHT22;23928;47.562;7.508;2022-11-15T12:52:14;11.60;99.90
38118;DHT22;23928;47.562;7.508;2022-11-15T13:00:00;11.70;99.90
38118;DHT22;23928;47.562;7.508;2022-11-15T13:02:35;11.60;99.90
38118;DHT22;23928;47.562;7.508;2022-11-15T13:20:51;11.60;99.90
38118;DHT22;23928;47.562;7.508;2022-11-15T13:23:17;11.60;99.90
38118;DHT22;23928;47.562;7.508;2022-11-15T13:26:04;11.70;99.90
38118;DHT22;23928;47.562;7.508;2022-11-15T13:28:49;11.60;99.90
38118;DHT22;23928;47.562;7.508;2022-11-15T13:31:30;11.60;99.90
38118;DHT22;23928;47.562;7.508;2022-11-15T13:34:02;11.60;99.90
38118;DHT22;23928;47.562;7.508;2022-11-15T13:36:31;11.60;99.90
38118;DHT22;23928;47.562;7.508;2022-11-15T13:39:14;11.60;99.90
38118;DHT22;23928;47.562;7.508;2022-11-15T13:41:50;11.50;99.90
38118;DHT22;23928;47.562;7.508;2022-11-15T13:44:22;11.70;99.90
38118;DHT22;23928;47.562;7.508;2022-11-15T13:46:48;11.60;99.90
38118;DHT22;23928;47.562;7.508;2022-11-15T13:49:14;11.60;99.90
38118;DHT22;23928;47.562;7.508;2022-11-15T13:51:51;11.60;99.90
38118;DHT22;23928;47.562;7.508;2022-11-15T13:54:34;11.60;99.90
38118;DHT22;23928;47.562;7.508;2022-11-15T14:00:04;11.60;99.90
38118;DHT22;23928;47.562;7.508;2022-11-15T14:02:32;11.50;99.90
38118;DHT22;23928;47.562;7.508;2022-11-15T14:05:18;11.50;99.90
38118;DHT22;23928;47.562;7.508;2022-11-15T14:08:01;11.50;99.90
38118;DHT22;23928;47.562;7.508;2022-11-15T14:10:37;11.50;99.90
38118;DHT22;23928;47.562;7.508;2022-11-15T14:13:04;11.50;99.90
38118;DHT22;23928;47.562;7.508;2022-11-15T14:15:36;11.60;99.90
38118;DHT22;23928;47.562;7.508;2022-11-15T14:18:03;11.50;99.90
38118;DHT22;23928;47.562;7.508;2022-11-15T14:20:31;11.50;99.90
38118;DHT22;23928;47.562;7.508;2022-11-15T14:23:02;11.50;99.90
38118;DHT22;23928;47.562;7.508;2022-11-15T14:25:33;11.50;99.90
38118;DHT22;23928;47.562;7.508;2022-11-15T14:28:28;11.40;99.90
38118;DHT22;23928;47.562;7.508;2022-11-15T14:30:57;11.30;99.90
38118;DHT22;23928;47.562;7.508;2022-11-15T14:33:35;11.30;99.90
38118;DHT22;23928;47.562;7.508;2022-11-15T14:36:11;11.30;99.90
38118;DHT22;23928;47.562;7.508;2022-11-15T14:38:37;11.30;99.90
38118;DHT22;23928;47.562;7.508;2022-11-15T14:41:03;11.30;99.90
38118;DHT22;23928;47.562;7.508;2022-11-15T14:43:29;11.20;99.90
38118;DHT22;23928;47.562;7.508;2022-11-15T14:45:54;11.20;99.90
38118;DHT22;23928;47.562;7.508;2022-11-15T14:48:20;11.20;99.90
38118;DHT22;23928;47.562;7.508;2022-11-15T14:50:47;11.10;99.90
38118;DHT22;23928;47.562;7.508;2022-11-15T14:53:17;11.10;99.90
38118;DHT22;23928;47.562;7.508;2022-11-15T14:55:43;11.10;99.90
38118;DHT22;23928;47.562;7.508;2022-11-15T14:58:09;11.10;99.90
38118;DHT22;23928;47.562;7.508;2022-11-15T15:00:37;11.30;99.90
38118;DHT22;23928;47.562;7.508;2022-11-15T15:03:04;11.20;99.90
38118;DHT22;23928;47.562;7.508;2022-11-15T15:05:38;11.30;99.90
38118;DHT22;23928;47.562;7.508;2022-11-15T15:08:05;11.10;99.90
38118;DHT22;23928;47.562;7.508;2022-11-15T15:10:36;11.10;99.90
38118;DHT22;23928;47.562;7.508;2022-11-15T15:13:04;11.10;99.90
38118;DHT22;23928;47.562;7.508;2022-11-15T15:15:35;11.10;99.90
38118;DHT22;23928;47.562;7.508;2022-11-15T15:18:01;11.10;99.90
38118;DHT22;23928;47.562;7.508;2022-11-15T15:20:27;11.00;99.90
38118;DHT22;23928;47.562;7.508;2022-11-15T15:22:54;11.20;99.90
38118;DHT22;23928;47.562;7.508;2022-11-15T15:25:21;10.90;99.90
38118;DHT22;23928;47.562;7.508;2022-11-15T15:27:46;10.90;99.90
38118;DHT22;23928;47.562;7.508;2022-11-15T15:30:12;11.00;99.90
38118;DHT22;23928;47.562;7.508;2022-11-15T15:32:38;11.00;99.90
38118;DHT22;23928;47.562;7.508;2022-11-15T15:35:04;10.90;99.90
38118;DHT22;23928;47.562;7.508;2022-11-15T15:37:29;10.90;99.90
38118;DHT22;23928;47.562;7.508;2022-11-15T15:39:57;11.00;99.90
38118;DHT22;23928;47.562;7.508;2022-11-15T15:42:23;10.90;99.90
38118;DHT22;23928;47.562;7.508;2022-11-15T15:44:50;10.90;99.90
38118;DHT22;23928;47.562;7.508;2022-11-15T15:47:18;10.90;99.90
38118;DHT22;23928;47.562;7.508;2022-11-15T15:49:45;10.90;99.90
38118;DHT22;23928;47.562;7.508;2022-11-15T15:52:11;10.80;99.90
38118;DHT22;23928;47.562;7.508;2022-11-15T15:54:37;10.80;99.90
38118;DHT22;23928;47.562;7.508;2022-11-15T15:57:03;10.80;99.90
38118;DHT22;23928;47.562;7.508;2022-11-15T15:59:29;10.80;99.90
38118;DHT22;23928;47.562;7.508;2022-11-15T16:01:54;10.80;99.90
38118;DHT22;23928;47.562;7.508;2022-11-15T16:04:20;10.80;99.90
38118;DHT22;23928;47.562;7.508;2022-11-15T16:06:45;10.70;99.90
38118;DHT22;23928;47.562;7.508;2022-11-15T16:09:14;10.70;99.90
38118;DHT22;23928;47.562;7.508;2022-11-15T16:11:41;10.70;99.90
38118;DHT22;23928;47.562;7.508;2022-11-15T16:14:07;10.60;99.90
38118;DHT22;23928;47.562;7.508;2022-11-15T16:16:34;10.70;99.90
38118;DHT22;23928;47.562;7.508;2022-11-15T16:19:00;10.70;99.90
38118;DHT22;23928;47.562;7.508;2022-11-15T16:21:27;10.70;99.90
38118;DHT22;23928;47.562;7.508;2022-11-15T16:23:53;10.60;99.90
38118;DHT22;23928;47.562;7.508;2022-11-15T16:26:25;10.60;99.90
38118;DHT22;23928;47.562;7.508;2022-11-15T16:28:51;10.60;99.90
38118;DHT22;23928;47.562;7.508;2022-11-15T16:31:17;10.50;99.90
38118;DHT22;23928;47.562;7.508;2022-11-15T16:33:45;10.70;99.90
38118;DHT22;23928;47.562;7.508;2022-11-15T16:36:22;10.60;99.90
38118;DHT22;23928;47.562;7.508;2022-11-15T16:38:48;10.60;99.90
38118;DHT22;23928;47.562;7.508;2022-11-15T16:41:15;10.60;99.90
38118;DHT22;23928;47.562;7.508;2022-11-15T16:43:46;10.50;99.90
38118;DHT22;23928;47.562;7.508;2022-11-15T16:46:22;10.50;99.90
38118;DHT22;23928;47.562;7.508;2022-11-15T16:48:48;10.50;99.90
38118;DHT22;23928;47.562;7.508;2022-11-15T16:51:14;10.60;99.90
38118;DHT22;23928;47.562;7.508;2022-11-15T16:53:40;10.60;99.90
38118;DHT22;23928;47.562;7.508;2022-11-15T16:58:51;10.60;99.90
38118;DHT22;23928;47.562;7.508;2022-11-15T17:01:22;10.50;99.90
38118;DHT22;23928;47.562;7.508;2022-11-15T17:03:48;10.70;99.90
38118;DHT22;23928;47.562;7.508;2022-11-15T17:06:14;10.60;99.90
38118;DHT22;23928;47.562;7.508;2022-11-15T17:08:40;10.60;99.90
38118;DHT22;23928;47.562;7.508;2022-11-15T17:11:07;10.50;99.90
38118;DHT22;23928;47.562;7.508;2022-11-15T17:13:33;10.60;99.90
38118;DHT22;23928;47.562;7.508;2022-11-15T17:16:03;10.60;99.90
38118;DHT22;23928;47.562;7.508;2022-11-15T17:18:29;10.50;99.90
38118;DHT22;23928;47.562;7.508;2022-11-15T17:20:54;10.60;99.90
38118;DHT22;23928;47.562;7.508;2022-11-15T17:23:20;10.60;99.90
38118;DHT22;23928;47.562;7.508;2022-11-15T17:25:45;10.50;99.90
38118;DHT22;23928;47.562;7.508;2022-11-15T17:28:11;10.60;99.90
38118;DHT22;23928;47.562;7.508;2022-11-15T17:30:40;10.70;99.90
38118;DHT22;23928;47.562;7.508;2022-11-15T17:33:06;10.50;99.90
38118;DHT22;23928;47.562;7.508;2022-11-15T17:35:32;10.60;99.90
38118;DHT22;23928;47.562;7.508;2022-11-15T17:37:57;10.60;99.90
38118;DHT22;23928;47.562;7.508;2022-11-15T17:40:23;10.60;99.90
38118;DHT22;23928;47.562;7.508;2022-11-15T17:42:48;10.60;99.90
38118;DHT22;23928;47.562;7.508;2022-11-15T17:45:14;10.60;99.90
38118;DHT22;23928;47.562;7.508;2022-11-15T17:47:39;10.60;99.90
38118;DHT22;23928;47.562;7.508;2022-11-15T17:50:05;10.60;99.90
38118;DHT22;23928;47.562;7.508;2022-11-15T17:52:31;10.60;99.90
38118;DHT22;23928;47.562;7.508;2022-11-15T17:54:56;10.60;99.90
38118;DHT22;23928;47.562;7.508;2022-11-15T17:57:22;10.60;99.90
38118;DHT22;23928;47.562;7.508;2022-11-15T17:59:47;10.60;99.90
38118;DHT22;23928;47.562;7.508;2022-11-15T18:02:13;10.80;99.90